createdAt,value
2018-05-24T20:29:54.205Z,100526
2018-05-24T20:32:20.215Z,100536
2018-05-24T20:34:46.235Z,100534
2018-05-24T20:37:12.268Z,100531
2018-05-24T20:39:38.274Z,100532
2018-05-24T20:42:04.287Z,100527
2018-05-24T20:44:30.313Z,100530
2018-05-24T20:46:56.398Z,100528
2018-05-24T20:49:22.414Z,100528
2018-05-24T20:51:48.448Z,100519
2018-05-24T20:54:14.456Z,100524
2018-05-24T20:56:40.490Z,100527
2018-05-24T20:59:06.486Z,100526
2018-05-24T21:01:32.505Z,100522
2018-05-24T21:03:58.508Z,100520
2018-05-24T21:06:24.538Z,100512
2018-05-24T21:08:50.542Z,100519
2018-05-24T21:11:16.555Z,100516
2018-05-24T21:13:42.599Z,100520
2018-05-24T21:16:08.627Z,100514
2018-05-24T21:18:34.634Z,100523
2018-05-24T21:21:00.893Z,100520
2018-05-24T21:23:26.922Z,100519
2018-05-24T21:25:52.935Z,100519
2018-05-24T21:28:18.945Z,100523
2018-05-24T21:30:44.979Z,100522
2018-05-24T21:33:10.980Z,100517
2018-05-24T21:35:37.031Z,100514
2018-05-24T21:38:03.042Z,100518
2018-05-24T21:40:29.074Z,100514
2018-05-24T21:42:55.092Z,100528
2018-05-24T21:45:21.160Z,100526
2018-05-24T21:47:47.173Z,100534
2018-05-24T21:50:13.246Z,100531
2018-05-24T21:52:39.265Z,100534
2018-05-24T21:55:05.283Z,100533
2018-05-24T21:57:31.291Z,100534
2018-05-24T21:59:57.307Z,100532
2018-05-24T22:02:23.313Z,100534
2018-05-24T22:04:49.332Z,100536
2018-05-24T22:07:15.361Z,100542
2018-05-24T22:09:41.367Z,100536
2018-05-24T22:12:07.374Z,100536
2018-05-24T22:14:33.386Z,100536
2018-05-24T22:16:59.423Z,100539
2018-05-24T22:19:25.462Z,100537
2018-05-24T22:21:51.469Z,100532
2018-05-24T22:24:17.486Z,100542
2018-05-24T22:26:43.511Z,100536
2018-05-24T22:29:09.676Z,100544
2018-05-24T22:31:35.694Z,100541
2018-05-24T22:34:01.699Z,100548
2018-05-24T22:36:27.708Z,100545
2018-05-24T22:38:53.711Z,100548
2018-05-24T22:41:19.727Z,100546
2018-05-24T22:43:45.728Z,100540
2018-05-24T22:46:11.738Z,100541
2018-05-24T22:48:37.755Z,100541
2018-05-24T22:51:03.807Z,100537
2018-05-24T22:53:29.806Z,100539
2018-05-24T22:55:55.846Z,100544
2018-05-24T22:58:21.850Z,100548
2018-05-24T23:00:47.871Z,100539
2018-05-24T23:03:13.875Z,100535
2018-05-24T23:05:39.885Z,100536
2018-05-24T23:08:05.886Z,100534
2018-05-24T23:10:31.903Z,100533
2018-05-24T23:12:57.901Z,100527
2018-05-24T23:15:23.911Z,100536
2018-05-24T23:17:49.908Z,100531
2018-05-24T23:20:15.926Z,100526
2018-05-24T23:22:41.927Z,100530
2018-05-24T23:27:40.391Z,100538
2018-05-24T23:30:06.402Z,100541
2018-05-24T23:32:32.403Z,100541
2018-05-24T23:34:58.406Z,100534
2018-05-24T23:37:24.430Z,100542
2018-05-24T23:39:50.434Z,100546
2018-05-24T23:42:16.454Z,100543
2018-05-24T23:44:42.460Z,100539
2018-05-24T23:47:08.462Z,100547
2018-05-24T23:49:34.476Z,100549
2018-05-24T23:52:00.499Z,100549
2018-05-24T23:54:26.511Z,100548
2018-05-24T23:56:52.528Z,100539
2018-05-24T23:59:18.531Z,100537
